Terminal Aerodrome Forecast
Issued by NWS

Home | Current Version | Previous Version | Text Only | Print | Product List | Glossary On
Versions: 1 2 3 4 5 6 7 8 9 10 11 12 13 14 15 16
000
FTUS45 KREV 190632 AAB
TAFRNO
TAF AMD
KRNO 190632Z 1907/2006 19015G32KT P6SM -RA BKN050 OVC090
      WS020/24045KT
     FM191000 18010KT P6SM -SHSN BKN050 OVC080 WS020/24045KT
     FM191500 22005KT P6SM VCSH FEW050 OVC100=

USA.gov is the U.S. government's official web portal to all federal, state and local government web resources and services.